createdAt,value
2019-01-21T00:01:06.466Z,23.90
2019-01-21T00:06:07.728Z,24.40
2019-01-21T00:11:08.995Z,23.50
2019-01-21T00:16:10.740Z,23.40
2019-01-21T00:21:12.069Z,22.70
2019-01-21T00:26:13.336Z,22.30
2019-01-21T00:31:14.611Z,22.70
2019-01-21T00:36:15.860Z,22.50
2019-01-21T00:41:17.113Z,23.30
2019-01-21T00:46:18.372Z,23.60
2019-01-21T00:51:19.610Z,23.30
2019-01-21T00:56:20.852Z,23.50
2019-01-21T01:01:22.111Z,24.10
2019-01-21T01:06:23.488Z,24.40
2019-01-21T01:11:24.736Z,24.50
2019-01-21T01:16:25.968Z,24.70
2019-01-21T01:21:27.272Z,25.00
2019-01-21T01:26:28.513Z,24.80
2019-01-21T01:31:29.753Z,24.40
2019-01-21T01:36:30.989Z,24.70
2019-01-21T01:41:32.229Z,25.30
2019-01-21T01:46:33.590Z,25.70
2019-01-21T01:51:35.032Z,25.90
2019-01-21T01:56:36.273Z,26.20
2019-01-21T02:01:37.618Z,25.90
2019-01-21T02:06:38.979Z,25.50
2019-01-21T02:11:40.935Z,26.80
2019-01-21T02:16:42.447Z,27.20
2019-01-21T02:21:44.735Z,26.00
2019-01-21T02:26:51.287Z,25.20
2019-01-21T02:32:24.500Z,26.30
2019-01-21T02:37:57.245Z,26.50
2019-01-21T02:43:13.193Z,26.70
2019-01-21T02:48:35.444Z,27.40
2019-01-21T02:53:45.383Z,26.60
2019-01-21T02:59:15.315Z,26.40
2019-01-21T03:04:39.413Z,25.70
2019-01-21T03:10:12.988Z,25.20
2019-01-21T03:16:11.398Z,25.80
2019-01-21T03:21:32.905Z,26.00
2019-01-21T03:26:48.361Z,26.60
2019-01-21T03:32:32.854Z,27.10
2019-01-21T03:38:11.332Z,26.80
2019-01-21T03:43:37.642Z,25.90
2019-01-21T03:48:41.116Z,26.80
2019-01-21T03:53:53.395Z,26.90
2019-01-21T03:59:12.671Z,26.30
2019-01-21T04:04:45.650Z,26.20
2019-01-21T04:10:46.375Z,26.80
2019-01-21T04:16:05.316Z,26.60
2019-01-21T04:21:24.362Z,26.70
2019-01-21T04:27:01.337Z,27.40
2019-01-21T04:32:22.880Z,28.00
2019-01-21T04:37:35.597Z,27.50
2019-01-21T04:43:14.657Z,27.20
2019-01-21T04:48:32.861Z,27.20
2019-01-21T04:53:54.536Z,26.90
2019-01-21T04:59:30.287Z,26.70
2019-01-21T05:04:49.319Z,27.30
2019-01-21T05:10:21.061Z,28.00
2019-01-21T05:15:49.280Z,28.90
2019-01-21T05:21:10.833Z,29.20
2019-01-21T05:26:17.791Z,28.00
2019-01-21T05:31:39.493Z,27.40
2019-01-21T05:37:25.591Z,27.60
2019-01-21T05:43:24.210Z,28.00
2019-01-21T05:48:57.327Z,27.80
2019-01-21T05:54:28.213Z,28.10
2019-01-21T06:00:01.784Z,27.90
2019-01-21T06:05:08.756Z,27.70
2019-01-21T06:10:21.597Z,28.70
2019-01-21T06:15:58.263Z,28.30
2019-01-21T06:21:08.278Z,29.50
2019-01-21T06:26:41.991Z,28.70
2019-01-21T06:31:51.878Z,28.60
2019-01-21T06:37:07.516Z,28.20
2019-01-21T06:42:37.566Z,27.50
2019-01-21T06:48:06.025Z,26.80
2019-01-21T06:53:49.307Z,27.30
2019-01-21T06:59:10.632Z,27.80
2019-01-21T07:04:23.837Z,28.30
2019-01-21T07:09:33.641Z,28.60
2019-01-21T07:15:03.235Z,28.40
2019-01-21T07:20:28.144Z,28.60
2019-01-21T07:25:53.225Z,30.10
2019-01-21T07:31:09.340Z,29.40
2019-01-21T07:36:49.756Z,29.50
2019-01-21T07:42:23.633Z,29.50
2019-01-21T07:48:02.232Z,28.10
2019-01-21T07:53:33.620Z,26.50
2019-01-21T07:58:49.486Z,25.40
2019-01-21T08:04:20.806Z,24.20
2019-01-21T08:09:46.108Z,20.00
2019-01-21T08:14:56.168Z,18.00
2019-01-21T08:20:30.159Z,17.80
2019-01-21T08:25:59.728Z,18.40
2019-01-21T08:31:18.452Z,19.00
2019-01-21T08:36:46.839Z,17.70
2019-01-21T08:42:08.177Z,17.70
2019-01-21T08:47:23.761Z,17.70
2019-01-21T08:52:39.851Z,17.80
2019-01-21T08:58:01.669Z,17.20
2019-01-21T09:03:35.630Z,18.30
2019-01-21T09:08:51.523Z,17.90
2019-01-21T09:14:20.066Z,17.90
2019-01-21T09:19:57.022Z,17.50
2019-01-21T09:25:27.654Z,17.10
2019-01-21T09:30:55.714Z,17.00
2019-01-21T09:36:25.746Z,16.60
2019-01-21T09:42:07.867Z,17.60
2019-01-21T09:47:08.816Z,17.20
2019-01-21T09:52:14.473Z,17.00
2019-01-21T09:57:17.530Z,16.70
2019-01-21T10:02:27.464Z,15.50
2019-01-21T10:07:35.630Z,13.20
2019-01-21T10:13:06.861Z,13.30
2019-01-21T10:18:38.142Z,15.40
2019-01-21T10:24:12.789Z,16.30
2019-01-21T10:29:38.380Z,16.00
2019-01-21T10:35:11.229Z,17.10
2019-01-21T10:40:39.498Z,12.70
2019-01-21T10:45:58.630Z,12.90
2019-01-21T10:51:11.769Z,15.70
2019-01-21T10:56:21.480Z,15.50
2019-01-21T11:01:31.390Z,13.60
2019-01-21T11:07:19.430Z,14.50
2019-01-21T11:12:50.242Z,12.20
2019-01-21T11:18:08.786Z,12.50
2019-01-21T11:23:36.420Z,10.60
2019-01-21T11:28:49.543Z,9.80
2019-01-21T11:34:02.585Z,10.20
2019-01-21T11:39:37.309Z,9.40
2019-01-21T11:44:58.917Z,8.40
2019-01-21T11:50:35.622Z,7.90
2019-01-21T11:55:53.865Z,7.40
2019-01-21T12:01:15.783Z,7.40
2019-01-21T12:06:22.769Z,7.10
2019-01-21T12:11:35.502Z,6.80
2019-01-21T12:17:19.028Z,6.90
2019-01-21T12:22:40.584Z,6.60
2019-01-21T12:28:28.443Z,1.00
2019-01-21T12:33:50.145Z,1.00
2019-01-21T12:39:31.531Z,1.00
2019-01-21T12:44:47.037Z,1.00
2019-01-21T12:50:47.548Z,1.00
2019-01-21T12:56:23.950Z,1.00
2019-01-21T13:01:42.478Z,1.00
2019-01-21T13:07:12.270Z,1.00
2019-01-21T13:12:36.362Z,1.00
2019-01-21T13:17:46.339Z,1.00
2019-01-21T13:22:53.305Z,1.00
2019-01-21T13:28:21.191Z,1.00
2019-01-21T13:33:42.768Z,1.00
2019-01-21T13:39:37.801Z,1.00
2019-01-21T13:45:01.587Z,1.00
2019-01-21T13:50:29.007Z,1.00
2019-01-21T13:55:44.155Z,1.00
2019-01-21T14:01:15.223Z,1.00
2019-01-21T14:06:40.562Z,1.00
2019-01-21T14:11:53.613Z,1.00
2019-01-21T14:17:27.746Z,1.00
2019-01-21T14:22:46.490Z,1.00
2019-01-21T14:28:12.761Z,1.00
2019-01-21T14:33:22.437Z,1.00
2019-01-21T14:38:32.222Z,1.00
2019-01-21T14:43:57.186Z,1.00
2019-01-21T14:49:33.052Z,1.00
2019-01-21T14:54:57.505Z,1.00
2019-01-21T15:00:32.269Z,1.00
2019-01-21T15:06:09.603Z,1.00
2019-01-21T15:11:45.283Z,1.00
2019-01-21T15:17:00.787Z,1.00
2019-01-21T15:22:31.754Z,1.00
2019-01-21T15:27:51.164Z,1.00
2019-01-21T15:33:04.098Z,1.00
2019-01-21T15:38:23.219Z,1.00
2019-01-21T15:43:36.149Z,1.00
2019-01-21T15:49:10.485Z,1.00
2019-01-21T15:54:38.457Z,1.00
2019-01-21T16:00:40.108Z,1.00
2019-01-21T16:06:08.316Z,1.00
2019-01-21T16:11:35.170Z,1.00
2019-01-21T16:17:00.108Z,1.00
2019-01-21T16:22:29.902Z,1.00
2019-01-21T16:27:48.488Z,4.50
2019-01-21T16:32:55.465Z,2.20
2019-01-21T16:38:02.433Z,2.60
2019-01-21T16:43:03.923Z,3.80
2019-01-21T16:48:05.401Z,5.60
2019-01-21T16:53:06.649Z,6.20
2019-01-21T16:58:08.026Z,9.20
2019-01-21T17:03:09.326Z,13.90
2019-01-21T17:08:10.691Z,17.70
2019-01-21T17:13:12.069Z,17.80
2019-01-21T17:18:13.330Z,19.60
2019-01-21T17:23:14.676Z,21.30
2019-01-21T17:28:15.975Z,22.80
2019-01-21T17:33:17.314Z,25.80
2019-01-21T17:38:18.589Z,26.60
2019-01-21T17:43:19.856Z,26.70
2019-01-21T17:48:21.136Z,25.20
2019-01-21T17:53:22.495Z,26.00
2019-01-21T17:58:23.777Z,25.70
2019-01-21T18:03:25.040Z,25.20
2019-01-21T18:08:26.390Z,25.40
2019-01-21T18:13:27.681Z,26.50
2019-01-21T18:18:28.962Z,26.80
2019-01-21T18:23:30.200Z,27.10
2019-01-21T18:28:31.492Z,28.00
2019-01-21T18:33:32.751Z,29.80
2019-01-21T18:38:34.056Z,28.50
2019-01-21T18:43:35.501Z,28.10
2019-01-21T18:48:36.888Z,28.70
2019-01-21T18:53:38.158Z,28.70
2019-01-21T18:58:39.415Z,26.30
2019-01-21T19:03:40.779Z,26.20
2019-01-21T19:08:42.136Z,25.90
2019-01-21T19:13:43.429Z,27.50
2019-01-21T19:18:44.719Z,26.90
2019-01-21T19:23:45.981Z,26.50
2019-01-21T19:28:47.275Z,24.00
2019-01-21T19:33:48.547Z,23.50
2019-01-21T19:38:49.845Z,22.70
2019-01-21T19:43:51.129Z,23.40
2019-01-21T19:48:52.497Z,24.30
2019-01-21T19:53:53.896Z,26.30
2019-01-21T19:58:55.197Z,26.30
2019-01-21T20:03:56.576Z,26.30
2019-01-21T20:08:57.880Z,26.80
2019-01-21T20:13:59.187Z,27.60
2019-01-21T20:19:00.548Z,28.10
2019-01-21T20:24:01.920Z,28.10
2019-01-21T20:29:03.384Z,29.00
2019-01-21T20:34:04.850Z,29.30
2019-01-21T20:39:06.820Z,28.70
2019-01-21T20:44:08.167Z,29.40
2019-01-21T20:49:09.480Z,29.60
2019-01-21T20:54:10.838Z,29.90
2019-01-21T20:59:12.233Z,30.00
2019-01-21T21:04:13.478Z,30.20
2019-01-21T21:09:14.765Z,30.20
2019-01-21T21:14:16.015Z,30.30
2019-01-21T21:19:17.256Z,30.90
2019-01-21T21:24:18.507Z,30.70
2019-01-21T21:29:19.754Z,30.80
2019-01-21T21:34:20.987Z,30.70
2019-01-21T21:39:22.239Z,30.50
2019-01-21T21:44:23.472Z,30.80
2019-01-21T21:49:24.845Z,30.90
2019-01-21T21:54:26.080Z,30.80
2019-01-21T21:59:27.610Z,30.60
2019-01-21T22:04:28.904Z,30.60
2019-01-21T22:09:30.144Z,30.60
2019-01-21T22:14:31.370Z,30.60
2019-01-21T22:19:32.609Z,30.70
2019-01-21T22:24:33.892Z,30.60
2019-01-21T22:29:35.129Z,30.90
2019-01-21T22:34:36.781Z,30.50
2019-01-21T22:39:38.034Z,30.90
2019-01-21T22:44:39.282Z,31.10
2019-01-21T22:49:40.560Z,31.10
2019-01-21T22:54:41.798Z,31.50
2019-01-21T22:59:43.076Z,31.10
2019-01-21T23:04:44.305Z,31.00
2019-01-21T23:09:46.168Z,31.10
2019-01-21T23:14:47.420Z,31.10
2019-01-21T23:19:48.664Z,31.20
2019-01-21T23:24:49.894Z,31.10
2019-01-21T23:29:51.139Z,31.20
2019-01-21T23:34:52.381Z,31.00
2019-01-21T23:39:53.628Z,31.00
2019-01-21T23:44:54.873Z,31.20
2019-01-21T23:49:56.161Z,30.80
2019-01-21T23:54:57.399Z,30.30
2019-01-21T23:59:58.669Z,30.00
